Alfred, Maine
Current Conditions -  °F | °C
As of 8:55 AM on Wednesday 28 Jan 2015 (Local Time) from KSFM Reporting Station
Broken Clouds Broken Clouds  
Wind Chill:   Ceiling: 4200
Heat Index: 16°   Visibility: 3mi
Dew Point:   Wind: 13mph
Humidity: 68%   Direction: 300°WNW
Pressure: 29.88"   Gusts: 16mph
Location:  43.48°N, 70.72°W
Report Text: KSFM 281355Z AUTO 30011G14KT 3SM BKN042 M09/M14 A2988 RMK AO1
Loading
Personal Weather Stations






























Interactive Weather Map New forecast layout! Learn more

10-Day Weather Forecast

Advertisements
Track Severe Weather on mobile